createdAt,value
2019-03-17T00:02:24.990Z,17.13
2019-03-17T00:04:57.435Z,16.40
2019-03-17T00:07:30.186Z,15.69
2019-03-17T00:10:02.545Z,15.09
2019-03-17T00:12:34.976Z,14.58
2019-03-17T00:15:08.195Z,14.06
2019-03-17T00:17:41.956Z,13.58
2019-03-17T00:20:15.657Z,13.15
2019-03-17T00:22:48.095Z,14.14
2019-03-17T00:25:20.751Z,16.03
2019-03-17T00:27:53.236Z,17.55
2019-03-17T00:30:25.785Z,17.52
2019-03-17T00:32:58.632Z,16.73
2019-03-17T00:35:31.191Z,16.03
2019-03-17T00:38:03.985Z,15.44
2019-03-17T00:40:36.245Z,14.87
2019-03-17T00:43:08.520Z,14.39
2019-03-17T00:45:40.925Z,13.90
2019-03-17T00:48:13.331Z,13.46
2019-03-17T00:50:48.762Z,13.02
2019-03-17T00:53:19.930Z,13.96
2019-03-17T00:55:53.240Z,15.83
2019-03-17T00:58:25.555Z,17.30
2019-03-17T01:00:57.846Z,17.31
2019-03-17T01:03:31.312Z,16.55
2019-03-17T01:06:03.943Z,15.83
2019-03-17T01:08:36.260Z,15.25
2019-03-17T01:11:08.450Z,14.73
2019-03-17T01:13:40.759Z,14.21
2019-03-17T01:16:13.246Z,13.75
2019-03-17T01:18:46.166Z,13.28
2019-03-17T01:21:18.535Z,12.87
2019-03-17T01:23:50.691Z,13.85
2019-03-17T01:26:24.039Z,15.66
2019-03-17T01:28:56.175Z,17.19
2019-03-17T01:31:28.344Z,17.24
2019-03-17T01:34:00.542Z,16.47
2019-03-17T01:36:32.830Z,15.79
2019-03-17T01:39:06.931Z,15.18
2019-03-17T01:41:40.785Z,14.64
2019-03-17T01:44:12.990Z,14.13
2019-03-17T01:46:45.490Z,13.68
2019-03-17T01:49:17.714Z,13.25
2019-03-17T01:51:49.965Z,12.83
2019-03-17T01:54:23.211Z,13.86
2019-03-17T01:56:55.625Z,15.88
2019-03-17T01:59:27.950Z,17.45
2019-03-17T02:02:00.470Z,17.48
2019-03-17T02:04:32.905Z,16.71
2019-03-17T02:07:05.305Z,16.01
2019-03-17T02:09:37.569Z,15.41
2019-03-17T02:12:09.966Z,14.87
2019-03-17T02:14:42.420Z,14.34
2019-03-17T02:17:14.584Z,13.86
2019-03-17T02:19:46.880Z,13.42
2019-03-17T02:22:19.043Z,13.02
2019-03-17T02:24:51.313Z,12.60
2019-03-17T02:27:23.870Z,13.68
2019-03-17T02:29:56.231Z,15.57
2019-03-17T02:32:28.726Z,17.16
2019-03-17T02:35:01.050Z,17.19
2019-03-17T02:37:33.437Z,16.45
2019-03-17T02:40:07.670Z,15.75
2019-03-17T02:42:39.912Z,15.14
2019-03-17T02:45:12.361Z,14.65
2019-03-17T02:47:44.575Z,14.13
2019-03-17T02:50:16.980Z,13.66
2019-03-17T02:52:49.266Z,13.21
2019-03-17T02:55:21.445Z,12.80
2019-03-17T02:57:53.765Z,12.45
2019-03-17T03:00:26.152Z,13.49
2019-03-17T03:02:58.742Z,15.45
2019-03-17T03:05:31.256Z,17.05
2019-03-17T03:08:03.904Z,17.10
2019-03-17T03:10:35.992Z,16.34
2019-03-17T03:13:08.559Z,15.65
2019-03-17T03:15:40.972Z,15.09
2019-03-17T03:18:13.209Z,14.55
2019-03-17T03:20:45.446Z,14.06
2019-03-17T03:23:18.856Z,13.56
2019-03-17T03:25:51.226Z,13.14
2019-03-17T03:28:23.591Z,12.73
2019-03-17T03:30:55.827Z,12.32
2019-03-17T03:33:28.154Z,11.98
2019-03-17T03:36:10.647Z,13.02
2019-03-17T03:38:34.657Z,14.93
2019-03-17T03:41:07.098Z,16.62
2019-03-17T03:43:39.475Z,16.72
2019-03-17T03:46:11.752Z,16.00
2019-03-17T03:48:43.910Z,15.33
2019-03-17T03:51:15.928Z,14.78
2019-03-17T03:53:48.150Z,14.25
2019-03-17T03:56:20.506Z,13.78
2019-03-17T03:58:52.848Z,13.30
2019-03-17T04:01:25.340Z,12.90
2019-03-17T04:03:57.641Z,12.48
2019-03-17T04:06:29.787Z,12.08
2019-03-17T04:09:02.317Z,11.74
2019-03-17T04:11:34.760Z,11.41
2019-03-17T04:14:07.143Z,12.48
2019-03-17T04:16:39.367Z,14.41
2019-03-17T04:19:11.776Z,15.94
2019-03-17T04:21:44.237Z,16.03
2019-03-17T04:24:16.788Z,15.35
2019-03-17T04:26:49.110Z,14.71
2019-03-17T04:29:21.715Z,14.17
2019-03-17T04:31:54.146Z,13.68
2019-03-17T04:34:26.406Z,13.21
2019-03-17T04:36:58.803Z,12.76
2019-03-17T04:39:30.912Z,12.35
2019-03-17T04:42:03.225Z,11.93
2019-03-17T04:44:35.686Z,11.59
2019-03-17T04:47:07.965Z,11.22
2019-03-17T04:49:41.628Z,12.25
2019-03-17T04:52:13.870Z,14.17
2019-03-17T04:54:46.365Z,15.68
2019-03-17T04:57:18.490Z,15.75
2019-03-17T04:59:50.901Z,15.03
2019-03-17T05:02:23.299Z,14.42
2019-03-17T05:04:55.631Z,13.92
2019-03-17T05:07:28.066Z,13.42
2019-03-17T05:10:01.415Z,13.00
2019-03-17T05:12:33.845Z,12.55
2019-03-17T05:15:11.128Z,12.14
2019-03-17T05:17:43.510Z,11.76
2019-03-17T05:20:15.935Z,11.39
2019-03-17T05:22:48.446Z,11.08
2019-03-17T05:25:20.871Z,10.79
2019-03-17T05:27:53.210Z,11.87
2019-03-17T05:30:25.745Z,13.93
2019-03-17T05:32:57.905Z,15.66
2019-03-17T05:35:30.750Z,15.76
2019-03-17T05:38:03.120Z,15.06
2019-03-17T05:40:35.520Z,14.47
2019-03-17T05:43:07.995Z,13.94
2019-03-17T05:45:40.150Z,13.46
2019-03-17T05:48:12.524Z,13.06
2019-03-17T05:50:46.016Z,12.66
2019-03-17T05:53:19.895Z,12.27
2019-03-17T05:55:52.108Z,11.93
2019-03-17T05:58:24.494Z,11.58
2019-03-17T06:00:56.930Z,12.67
2019-03-17T06:03:29.303Z,14.58
2019-03-17T06:06:01.712Z,15.09
2019-03-17T06:08:34.091Z,14.49
2019-03-17T06:11:06.755Z,13.93
2019-03-17T06:13:39.330Z,13.52
2019-03-17T06:16:12.002Z,13.15
2019-03-17T06:18:44.470Z,12.83
2019-03-17T06:21:16.835Z,12.56
2019-03-17T06:23:49.330Z,12.31
2019-03-17T06:26:22.050Z,12.07
2019-03-17T06:28:54.226Z,13.20
2019-03-17T06:31:26.485Z,15.17
2019-03-17T06:33:58.956Z,15.64
2019-03-17T06:36:31.390Z,15.15
2019-03-17T06:39:04.230Z,14.68
2019-03-17T06:41:36.560Z,14.31
2019-03-17T06:44:08.915Z,14.00
2019-03-17T06:46:41.279Z,13.75
2019-03-17T06:49:13.655Z,13.46
2019-03-17T06:51:46.020Z,13.23
2019-03-17T06:54:18.285Z,13.02
2019-03-17T06:56:50.735Z,12.79
2019-03-17T06:59:23.061Z,12.60
2019-03-17T07:01:55.415Z,12.45
2019-03-17T07:04:28.080Z,12.29
2019-03-17T07:07:00.600Z,13.45
2019-03-17T07:09:33.200Z,15.42
2019-03-17T07:12:05.731Z,15.99
2019-03-17T07:14:38.185Z,15.57
2019-03-17T07:17:10.775Z,15.15
2019-03-17T07:19:43.096Z,14.86
2019-03-17T07:22:15.369Z,14.62
2019-03-17T07:24:48.006Z,14.39
2019-03-17T07:27:21.545Z,14.17
2019-03-17T07:29:53.961Z,14.00
2019-03-17T07:32:26.403Z,13.89
2019-03-17T07:34:59.001Z,13.76
2019-03-17T07:37:31.635Z,13.62
2019-03-17T07:40:05.160Z,13.52
2019-03-17T07:42:37.571Z,13.41
2019-03-17T07:45:11.621Z,13.32
2019-03-17T07:47:44.022Z,13.27
2019-03-17T07:50:16.335Z,13.20
2019-03-17T07:52:48.805Z,13.15
2019-03-17T07:55:21.465Z,13.10
2019-03-17T07:57:54.046Z,13.04
2019-03-17T08:00:32.255Z,13.02
2019-03-17T08:03:02.020Z,13.04
2019-03-17T08:05:34.561Z,13.07
2019-03-17T08:08:09.615Z,13.14
2019-03-17T08:10:40.740Z,13.18
2019-03-17T08:13:13.175Z,13.25
2019-03-17T08:15:45.720Z,13.32
2019-03-17T08:18:18.118Z,13.39
2019-03-17T08:20:50.813Z,13.45
2019-03-17T08:23:24.430Z,13.55
2019-03-17T08:25:56.936Z,13.58
2019-03-17T08:28:29.490Z,13.63
2019-03-17T08:31:02.136Z,13.72
2019-03-17T08:33:34.812Z,13.80
2019-03-17T08:36:07.068Z,13.86
2019-03-17T08:38:39.435Z,13.89
2019-03-17T08:41:11.966Z,13.96
2019-03-17T08:43:53.727Z,14.01
2019-03-17T08:46:18.601Z,14.07
2019-03-17T08:48:50.995Z,14.16
2019-03-17T08:51:23.612Z,14.21
2019-03-17T08:53:56.017Z,14.29
2019-03-17T08:56:28.390Z,14.34
2019-03-17T08:59:00.703Z,14.45
2019-03-17T09:01:33.186Z,14.49
2019-03-17T09:04:06.265Z,14.54
2019-03-17T09:06:38.707Z,14.61
2019-03-17T09:09:10.980Z,14.68
2019-03-17T09:11:43.380Z,14.76
2019-03-17T09:14:15.831Z,14.82
2019-03-17T09:16:48.264Z,14.92
2019-03-17T09:19:20.650Z,15.00
2019-03-17T09:21:53.221Z,15.07
2019-03-17T09:24:25.655Z,15.15
2019-03-17T09:26:58.170Z,15.24
2019-03-17T09:29:30.691Z,15.33
2019-03-17T09:32:03.025Z,15.40
2019-03-17T09:34:35.445Z,15.47
2019-03-17T09:37:07.886Z,15.57
2019-03-17T09:39:40.180Z,15.64
2019-03-17T09:42:12.584Z,15.72
2019-03-17T09:44:45.119Z,15.78
2019-03-17T09:47:17.595Z,15.80
2019-03-17T09:49:49.855Z,15.85
2019-03-17T09:52:22.339Z,15.86
2019-03-17T09:54:54.660Z,15.92
2019-03-17T09:57:26.856Z,15.93
2019-03-17T09:59:59.346Z,15.97
2019-03-17T10:02:31.852Z,16.03
2019-03-17T10:05:06.461Z,16.05
2019-03-17T10:07:39.040Z,16.09
2019-03-17T10:10:21.226Z,16.10
2019-03-17T10:12:53.551Z,16.12
2019-03-17T10:15:26.205Z,16.13
2019-03-17T10:17:58.820Z,16.17
2019-03-17T10:20:31.255Z,16.21
2019-03-17T10:23:03.572Z,16.23
2019-03-17T10:25:36.150Z,16.23
2019-03-17T10:28:08.570Z,16.26
2019-03-17T10:30:40.903Z,16.28
2019-03-17T10:33:13.350Z,16.34
2019-03-17T10:35:45.835Z,16.38
2019-03-17T10:38:18.310Z,16.45
2019-03-17T10:40:50.931Z,16.55
2019-03-17T10:43:23.795Z,16.58
2019-03-17T10:45:56.135Z,16.65
2019-03-17T10:48:28.765Z,16.69
2019-03-17T10:51:01.176Z,16.75
2019-03-17T10:53:33.640Z,16.78
2019-03-17T10:56:05.956Z,16.80
2019-03-17T10:58:38.240Z,16.82
2019-03-17T11:01:11.011Z,16.88
2019-03-17T11:03:46.612Z,16.91
2019-03-17T11:06:19.130Z,16.91
2019-03-17T11:08:51.420Z,16.95
2019-03-17T11:11:23.950Z,16.95
2019-03-17T11:13:56.490Z,16.99
2019-03-17T11:16:29.150Z,17.02
2019-03-17T11:19:01.370Z,17.05
2019-03-17T11:21:33.796Z,17.10
2019-03-17T11:24:06.190Z,17.13
2019-03-17T11:26:38.641Z,17.19
2019-03-17T11:29:11.140Z,17.20
2019-03-17T11:31:43.687Z,17.24
2019-03-17T11:34:16.240Z,17.27
2019-03-17T11:36:48.768Z,17.33
2019-03-17T11:39:21.095Z,17.40
2019-03-17T11:41:53.800Z,17.42
2019-03-17T11:44:26.266Z,17.47
2019-03-17T11:46:58.500Z,17.52
2019-03-17T11:49:31.090Z,17.60
2019-03-17T11:52:03.521Z,17.67
2019-03-17T11:54:35.790Z,17.75
2019-03-17T11:57:08.380Z,17.79
2019-03-17T11:59:40.825Z,17.86
2019-03-17T12:02:25.761Z,17.92
2019-03-17T12:04:47.731Z,17.97
2019-03-17T12:07:20.191Z,17.99
2019-03-17T12:09:52.481Z,18.03
2019-03-17T12:12:24.860Z,18.05
2019-03-17T12:14:57.651Z,18.03
2019-03-17T12:17:30.101Z,18.10
2019-03-17T12:20:02.869Z,18.12
2019-03-17T12:22:36.181Z,18.14
2019-03-17T12:25:14.393Z,18.21
2019-03-17T12:27:46.930Z,18.25
2019-03-17T12:30:30.125Z,18.31
2019-03-17T12:33:02.528Z,18.31
2019-03-17T12:35:35.079Z,18.31
2019-03-17T12:38:07.803Z,18.31
2019-03-17T12:40:40.070Z,18.28
2019-03-17T12:43:12.657Z,18.27
2019-03-17T12:45:45.116Z,18.27
2019-03-17T12:48:17.680Z,18.28
2019-03-17T12:50:49.852Z,18.28
2019-03-17T12:53:22.179Z,18.33
2019-03-17T12:55:54.693Z,18.35
2019-03-17T12:58:27.245Z,18.35
2019-03-17T13:00:59.670Z,18.35
2019-03-17T13:03:32.615Z,18.33
2019-03-17T13:06:04.996Z,18.37
2019-03-17T13:08:37.492Z,18.31
2019-03-17T13:11:11.015Z,18.33
2019-03-17T13:13:43.457Z,18.31
2019-03-17T13:16:15.953Z,18.31
2019-03-17T13:18:48.080Z,18.31
2019-03-17T13:21:20.255Z,18.31
2019-03-17T13:23:52.946Z,18.30
2019-03-17T13:26:25.451Z,18.28
2019-03-17T13:28:58.086Z,18.24
2019-03-17T13:31:30.447Z,18.17
2019-03-17T13:34:02.789Z,18.16
2019-03-17T13:36:35.315Z,18.17
2019-03-17T13:39:08.210Z,18.13
2019-03-17T13:41:40.464Z,18.10
2019-03-17T13:44:13.155Z,18.05
2019-03-17T13:46:45.595Z,18.03
2019-03-17T13:49:18.117Z,17.99
2019-03-17T13:51:50.915Z,18.00
2019-03-17T13:54:23.266Z,17.97
2019-03-17T13:56:55.660Z,17.95
2019-03-17T13:59:27.996Z,17.95
2019-03-17T14:02:00.515Z,17.95
2019-03-17T14:04:32.896Z,17.93
2019-03-17T14:07:06.435Z,17.89
2019-03-17T14:09:38.860Z,17.88
2019-03-17T14:12:11.185Z,17.88
2019-03-17T14:14:43.431Z,17.82
2019-03-17T14:17:15.748Z,17.81
2019-03-17T14:19:48.250Z,17.78
2019-03-17T14:22:20.330Z,17.74
2019-03-17T14:24:52.805Z,17.71
2019-03-17T14:27:25.165Z,17.68
2019-03-17T14:29:57.677Z,17.68
2019-03-17T14:32:29.895Z,17.67
2019-03-17T14:35:02.230Z,17.61
2019-03-17T14:37:34.616Z,17.58
2019-03-17T14:40:13.435Z,17.52
2019-03-17T14:42:48.975Z,17.48
2019-03-17T14:45:21.470Z,17.41
2019-03-17T14:47:53.909Z,17.34
2019-03-17T14:50:26.488Z,17.33
2019-03-17T14:53:00.874Z,17.27
2019-03-17T14:55:33.096Z,17.17
2019-03-17T14:58:05.690Z,17.10
2019-03-17T15:00:38.162Z,17.07
2019-03-17T15:03:10.632Z,17.00
2019-03-17T15:05:43.185Z,16.98
2019-03-17T15:08:15.640Z,16.92
2019-03-17T15:10:48.086Z,16.88
2019-03-17T15:13:20.406Z,16.80
2019-03-17T15:16:02.386Z,16.76
2019-03-17T15:18:26.919Z,16.71
2019-03-17T15:20:59.500Z,16.66
2019-03-17T15:23:32.745Z,16.61
2019-03-17T15:26:05.128Z,16.56
2019-03-17T15:28:37.593Z,16.51
2019-03-17T15:31:12.033Z,16.45
2019-03-17T15:33:44.055Z,16.40
2019-03-17T15:36:16.360Z,16.34
2019-03-17T15:38:48.873Z,16.24
2019-03-17T15:41:21.381Z,16.17
2019-03-17T15:43:54.032Z,16.10
2019-03-17T15:46:26.321Z,16.03
2019-03-17T15:48:58.625Z,15.96
2019-03-17T15:51:30.885Z,15.88
2019-03-17T15:54:03.215Z,15.83
2019-03-17T15:56:35.425Z,15.76
2019-03-17T15:59:07.560Z,15.70
2019-03-17T16:01:39.935Z,15.64
2019-03-17T16:04:12.185Z,15.55
2019-03-17T16:06:44.675Z,15.47
2019-03-17T16:09:17.091Z,15.38
2019-03-17T16:11:49.815Z,15.33
2019-03-17T16:14:22.190Z,15.24
2019-03-17T16:16:54.640Z,15.15
2019-03-17T16:19:27.034Z,15.09
2019-03-17T16:21:59.611Z,15.03
2019-03-17T16:24:32.040Z,14.92
2019-03-17T16:27:04.536Z,14.87
2019-03-17T16:29:36.885Z,14.82
2019-03-17T16:32:09.545Z,14.73
2019-03-17T16:34:41.855Z,14.65
2019-03-17T16:37:14.535Z,14.59
2019-03-17T16:39:47.061Z,14.52
2019-03-17T16:42:19.510Z,14.44
2019-03-17T16:44:52.107Z,14.41
2019-03-17T16:47:24.581Z,14.35
2019-03-17T16:49:59.095Z,14.29
2019-03-17T16:52:31.733Z,14.23
2019-03-17T16:55:05.913Z,14.17
2019-03-17T16:57:39.431Z,14.16
2019-03-17T17:00:23.684Z,14.08
2019-03-17T17:02:56.350Z,14.04
2019-03-17T17:05:28.866Z,14.00
2019-03-17T17:08:01.180Z,13.96
2019-03-17T17:10:33.371Z,13.90
2019-03-17T17:13:05.787Z,13.85
2019-03-17T17:15:38.348Z,13.79
2019-03-17T17:18:10.835Z,13.73
2019-03-17T17:20:43.690Z,13.63
2019-03-17T17:23:15.945Z,13.55
2019-03-17T17:25:48.541Z,13.41
2019-03-17T17:28:20.940Z,13.24
2019-03-17T17:30:53.486Z,13.04
2019-03-17T17:33:27.914Z,12.80
2019-03-17T17:35:59.710Z,12.56
2019-03-17T17:38:32.211Z,12.37
2019-03-17T17:41:04.497Z,12.11
2019-03-17T17:43:36.960Z,11.91
2019-03-17T17:46:09.497Z,11.68
2019-03-17T17:48:41.961Z,11.46
2019-03-17T17:51:14.485Z,11.26
2019-03-17T17:53:47.430Z,11.08
2019-03-17T17:56:20.015Z,10.87
2019-03-17T17:58:52.360Z,10.69
2019-03-17T18:01:24.765Z,10.52
2019-03-17T18:03:57.296Z,10.33
2019-03-17T18:06:29.642Z,10.20
2019-03-17T18:09:02.145Z,10.04
2019-03-17T18:11:34.565Z,9.86
2019-03-17T18:14:06.965Z,9.72
2019-03-17T18:16:41.735Z,9.59
2019-03-17T18:19:14.440Z,10.86
2019-03-17T18:21:46.876Z,12.88
2019-03-17T18:24:19.435Z,13.83
2019-03-17T18:26:51.796Z,13.35
2019-03-17T18:29:23.926Z,12.88
2019-03-17T18:31:56.450Z,12.49
2019-03-17T18:34:28.775Z,12.13
2019-03-17T18:37:01.317Z,11.82
2019-03-17T18:39:34.612Z,11.51
2019-03-17T18:42:06.951Z,11.25
2019-03-17T18:44:39.235Z,10.97
2019-03-17T18:47:12.068Z,10.72
2019-03-17T18:49:44.347Z,10.46
2019-03-17T18:52:16.781Z,10.24
2019-03-17T18:54:48.874Z,9.98
2019-03-17T18:57:21.472Z,11.14
2019-03-17T18:59:53.852Z,13.20
2019-03-17T19:02:26.395Z,14.86
2019-03-17T19:04:58.911Z,15.09
2019-03-17T19:07:31.465Z,14.45
2019-03-17T19:10:04.395Z,13.88
2019-03-17T19:12:45.497Z,13.39
2019-03-17T19:15:19.860Z,12.94
2019-03-17T19:17:52.433Z,12.51
2019-03-17T19:20:25.235Z,12.11
2019-03-17T19:22:57.580Z,11.74
2019-03-17T19:25:30.055Z,11.42
2019-03-17T19:28:02.590Z,11.08
2019-03-17T19:30:35.100Z,10.79
2019-03-17T19:33:07.540Z,11.82
2019-03-17T19:35:40.070Z,13.73
2019-03-17T19:38:12.445Z,15.37
2019-03-17T19:40:44.759Z,15.57
2019-03-17T19:43:17.395Z,14.87
2019-03-17T19:45:50.033Z,14.21
2019-03-17T19:48:22.535Z,13.68
2019-03-17T19:50:56.086Z,13.21
2019-03-17T19:53:28.505Z,12.76
2019-03-17T19:56:00.906Z,12.34
2019-03-17T19:58:33.255Z,11.96
2019-03-17T20:01:05.630Z,11.56
2019-03-17T20:03:37.865Z,11.21
2019-03-17T20:06:10.745Z,10.87
2019-03-17T20:08:43.452Z,11.90
2019-03-17T20:11:15.977Z,13.78
2019-03-17T20:13:48.291Z,15.44
2019-03-17T20:16:20.525Z,15.55
2019-03-17T20:18:52.856Z,14.86
2019-03-17T20:21:25.347Z,14.23
2019-03-17T20:23:57.695Z,13.68
2019-03-17T20:26:29.905Z,13.18
2019-03-17T20:29:03.517Z,12.67
2019-03-17T20:31:36.135Z,12.29
2019-03-17T20:34:08.867Z,11.89
2019-03-17T20:36:41.400Z,11.49
2019-03-17T20:39:13.905Z,11.14
2019-03-17T20:41:46.243Z,10.80
2019-03-17T20:44:18.953Z,10.48
2019-03-17T20:46:51.274Z,11.52
2019-03-17T20:49:23.855Z,13.52
2019-03-17T20:51:56.635Z,15.23
2019-03-17T20:54:28.875Z,15.41
2019-03-17T20:57:01.191Z,14.71
2019-03-17T20:59:33.336Z,14.06
2019-03-17T21:02:05.790Z,13.52
2019-03-17T21:04:38.439Z,13.03
2019-03-17T21:07:11.205Z,12.59
2019-03-17T21:09:43.745Z,12.14
2019-03-17T21:12:17.462Z,11.74
2019-03-17T21:14:50.156Z,11.29
2019-03-17T21:17:22.625Z,10.97
2019-03-17T21:19:55.244Z,10.60
2019-03-17T21:22:27.579Z,10.32
2019-03-17T21:25:00.000Z,11.39
2019-03-17T21:27:32.412Z,13.41
2019-03-17T21:30:07.551Z,15.10
2019-03-17T21:32:39.785Z,15.23
2019-03-17T21:35:12.326Z,14.49
2019-03-17T21:37:45.940Z,13.86
2019-03-17T21:40:18.460Z,13.32
2019-03-17T21:42:50.734Z,12.82
2019-03-17T21:45:23.085Z,12.32
2019-03-17T21:47:55.287Z,11.91
2019-03-17T21:50:27.702Z,11.49
2019-03-17T21:52:59.993Z,11.11
2019-03-17T21:55:32.180Z,10.73
2019-03-17T21:58:07.995Z,10.43
2019-03-17T22:00:38.760Z,10.10
2019-03-17T22:03:14.272Z,11.19
2019-03-17T22:05:46.860Z,13.23
2019-03-17T22:08:19.255Z,14.89
2019-03-17T22:10:52.641Z,14.97
2019-03-17T22:13:24.930Z,14.24
2019-03-17T22:15:58.770Z,13.65
2019-03-17T22:18:31.026Z,13.08
2019-03-17T22:21:03.340Z,12.60
2019-03-17T22:23:35.945Z,12.18
2019-03-17T22:26:08.525Z,11.73
2019-03-17T22:28:41.040Z,11.34
2019-03-17T22:31:13.411Z,10.94
2019-03-17T22:33:45.945Z,10.59
2019-03-17T22:36:18.576Z,10.28
2019-03-17T22:38:51.901Z,9.96
2019-03-17T22:41:24.255Z,10.93
2019-03-17T22:43:56.675Z,12.83
2019-03-17T22:46:29.100Z,14.51
2019-03-17T22:49:01.505Z,14.69
2019-03-17T22:51:34.100Z,13.99
2019-03-17T22:54:06.485Z,13.38
2019-03-17T22:56:38.967Z,12.86
2019-03-17T22:59:11.200Z,12.39
2019-03-17T23:01:43.646Z,11.94
2019-03-17T23:04:15.965Z,11.53
2019-03-17T23:06:48.245Z,11.11
2019-03-17T23:09:20.701Z,10.76
2019-03-17T23:11:53.020Z,10.39
2019-03-17T23:14:36.225Z,10.08
2019-03-17T23:16:59.447Z,11.08
2019-03-17T23:19:31.850Z,12.93
2019-03-17T23:22:04.393Z,14.44
2019-03-17T23:24:36.741Z,14.54
2019-03-17T23:27:08.805Z,13.83
2019-03-17T23:29:41.380Z,13.20
2019-03-17T23:32:13.785Z,12.70
2019-03-17T23:34:46.390Z,12.24
2019-03-17T23:37:18.750Z,11.77
2019-03-17T23:39:51.300Z,11.37
2019-03-17T23:42:23.965Z,10.96
2019-03-17T23:44:56.470Z,10.56
2019-03-17T23:47:28.871Z,10.22
2019-03-17T23:50:02.227Z,9.91
2019-03-17T23:52:34.915Z,9.57
2019-03-17T23:55:10.340Z,10.70
2019-03-17T23:57:42.687Z,12.69
